createdAt,value
2022-08-07T00:01:12.712Z,0.90
2022-08-07T00:03:51.873Z,0.98
2022-08-07T00:06:21.721Z,1.10
2022-08-07T00:08:59.886Z,1.00
2022-08-07T00:11:53.809Z,1.00
2022-08-07T00:14:21.864Z,1.05
2022-08-07T00:16:52.297Z,0.93
2022-08-07T00:19:21.568Z,1.00
2022-08-07T00:21:56.730Z,0.80
2022-08-07T00:24:28.340Z,1.00
2022-08-07T00:27:06.465Z,1.00
2022-08-07T00:29:33.889Z,1.02
2022-08-07T00:32:05.935Z,1.00
2022-08-07T00:34:35.659Z,1.10
2022-08-07T00:37:02.719Z,1.10
2022-08-07T00:39:32.002Z,1.02
2022-08-07T00:42:01.988Z,1.02
2022-08-07T00:44:33.270Z,0.95
2022-08-07T00:47:06.450Z,0.95
2022-08-07T00:50:20.814Z,0.93
2022-08-07T00:52:28.871Z,0.90
2022-08-07T00:55:00.169Z,1.00
2022-08-07T00:57:34.056Z,0.82
2022-08-07T01:00:01.182Z,0.90
2022-08-07T01:02:29.761Z,1.00
2022-08-07T01:04:58.830Z,0.98
2022-08-07T01:07:27.950Z,0.88
2022-08-07T01:10:07.236Z,0.90
2022-08-07T01:12:53.091Z,1.10
2022-08-07T01:15:22.316Z,1.15
2022-08-07T01:18:03.014Z,1.20
2022-08-07T01:20:35.292Z,1.08
2022-08-07T01:23:12.422Z,1.27
2022-08-07T01:25:55.121Z,1.20
2022-08-07T01:28:23.721Z,1.00
2022-08-07T01:30:54.058Z,1.10
2022-08-07T01:33:21.184Z,1.00
2022-08-07T01:35:54.294Z,1.10
2022-08-07T01:38:24.972Z,1.00
2022-08-07T01:41:02.075Z,1.27
2022-08-07T01:43:38.321Z,1.10
2022-08-07T01:46:05.671Z,1.13
2022-08-07T01:48:35.469Z,1.00
2022-08-07T01:52:01.019Z,0.88
2022-08-07T01:54:08.839Z,0.90
2022-08-07T01:56:49.774Z,0.93
2022-08-07T01:59:43.937Z,0.88
2022-08-07T02:03:11.680Z,0.90
2022-08-07T02:05:16.123Z,1.05
2022-08-07T02:08:02.854Z,0.98
2022-08-07T02:10:33.739Z,1.05
2022-08-07T02:13:02.848Z,1.50
2022-08-07T02:15:31.097Z,1.05
2022-08-07T02:18:02.869Z,0.90
2022-08-07T02:20:31.891Z,1.10
2022-08-07T02:23:05.098Z,1.10
2022-08-07T02:26:30.779Z,1.00
2022-08-07T02:28:25.533Z,0.93
2022-08-07T02:30:56.366Z,1.10
2022-08-07T02:33:42.140Z,1.10
2022-08-07T02:36:26.824Z,1.00
2022-08-07T02:38:57.254Z,1.00
2022-08-07T02:41:25.332Z,0.90
2022-08-07T02:44:02.087Z,1.00
2022-08-07T02:46:31.085Z,1.00
2022-08-07T02:48:58.518Z,1.00
2022-08-07T02:51:42.548Z,1.10
2022-08-07T02:54:19.319Z,1.00
2022-08-07T02:56:47.986Z,1.10
2022-08-07T02:59:19.799Z,1.05
2022-08-07T03:01:55.511Z,1.00
2022-08-07T03:04:23.574Z,1.00
2022-08-07T03:06:52.462Z,1.23
2022-08-07T03:09:43.628Z,1.27
2022-08-07T03:12:21.609Z,1.02
2022-08-07T03:14:52.488Z,1.23
2022-08-07T03:17:19.858Z,0.95
2022-08-07T03:19:54.866Z,1.00
2022-08-07T03:22:24.199Z,1.10
2022-08-07T03:24:57.328Z,1.08
2022-08-07T03:27:30.329Z,1.20
2022-08-07T03:29:58.763Z,1.10
2022-08-07T03:32:35.916Z,0.95
2022-08-07T03:35:18.342Z,1.13
2022-08-07T03:37:54.087Z,1.20
2022-08-07T03:40:23.710Z,1.10
2022-08-07T03:42:58.182Z,1.33
2022-08-07T03:45:30.895Z,1.30
2022-08-07T03:47:59.027Z,1.33
2022-08-07T03:50:28.506Z,1.20
2022-08-07T03:52:59.027Z,1.17
2022-08-07T03:55:52.796Z,1.30
2022-08-07T03:59:05.042Z,1.50
2022-08-07T04:01:13.814Z,1.20
2022-08-07T04:03:53.398Z,1.10
2022-08-07T04:06:37.158Z,1.30
2022-08-07T04:09:05.377Z,1.35
2022-08-07T04:12:25.208Z,1.30
2022-08-07T04:14:37.430Z,1.20
2022-08-07T04:17:19.758Z,1.30
2022-08-07T04:19:52.327Z,1.70
2022-08-07T04:22:23.699Z,1.48
2022-08-07T04:24:58.011Z,1.40
2022-08-07T04:27:26.593Z,1.70
2022-08-07T04:30:02.337Z,1.42
2022-08-07T04:32:34.644Z,1.38
2022-08-07T04:35:07.203Z,1.60
2022-08-07T04:37:40.380Z,1.88
2022-08-07T04:40:26.706Z,1.23
2022-08-07T04:43:01.398Z,1.52
2022-08-07T04:46:01.134Z,1.60
2022-08-07T04:48:40.756Z,1.73
2022-08-07T04:51:16.410Z,1.83
2022-08-07T04:54:09.705Z,1.50
2022-08-07T04:58:24.300Z,1.83
2022-08-07T05:00:14.256Z,1.80
2022-08-07T05:02:59.245Z,2.00
2022-08-07T05:05:52.765Z,1.98
2022-08-07T05:08:59.260Z,2.50
2022-08-07T05:11:58.552Z,2.80
2022-08-07T05:14:52.898Z,2.65
2022-08-07T05:17:51.753Z,3.22
2022-08-07T05:20:09.567Z,3.10
2022-08-07T05:25:08.596Z,2.92
2022-08-07T05:28:16.971Z,3.10
2022-08-07T05:30:30.198Z,2.70
2022-08-07T05:33:02.396Z,2.83
2022-08-07T05:35:42.176Z,2.70
2022-08-07T05:38:10.791Z,2.88
2022-08-07T05:40:50.615Z,2.70
2022-08-07T05:43:19.499Z,2.50
2022-08-07T05:46:07.038Z,2.35
2022-08-07T05:48:34.177Z,2.22
2022-08-07T05:51:01.721Z,2.30
2022-08-07T05:54:13.457Z,2.50
2022-08-07T05:56:26.885Z,2.22
2022-08-07T05:59:00.668Z,2.47
2022-08-07T06:01:30.664Z,2.78
2022-08-07T06:04:05.183Z,2.40
2022-08-07T06:06:34.312Z,2.40
2022-08-07T06:09:04.481Z,1.80
2022-08-07T06:11:33.359Z,1.67
2022-08-07T06:14:12.014Z,1.52
2022-08-07T06:16:50.160Z,1.98
2022-08-07T06:19:47.904Z,2.13
2022-08-07T06:22:15.599Z,1.98
2022-08-07T06:24:58.331Z,1.83
2022-08-07T06:27:44.232Z,1.70
2022-08-07T06:30:24.406Z,1.80
2022-08-07T06:33:02.011Z,1.60
2022-08-07T06:35:30.553Z,1.60
2022-08-07T06:38:08.170Z,1.70
2022-08-07T06:40:50.160Z,1.77
2022-08-07T06:43:22.375Z,1.60
2022-08-07T06:45:50.628Z,1.63
2022-08-07T06:48:25.257Z,1.70
2022-08-07T06:50:54.854Z,1.35
2022-08-07T06:55:28.226Z,1.80
2022-08-07T06:56:15.391Z,1.60
2022-08-07T07:00:12.663Z,1.63
2022-08-07T07:01:33.240Z,1.67
2022-08-07T07:04:28.270Z,1.95
2022-08-07T07:07:01.028Z,1.70
2022-08-07T07:09:31.792Z,1.90
2022-08-07T07:12:07.823Z,1.73
2022-08-07T07:15:26.093Z,1.70
2022-08-07T07:20:45.981Z,1.48
2022-08-07T07:24:09.458Z,1.75
2022-08-07T07:26:34.758Z,1.50
2022-08-07T07:29:39.573Z,1.70
2022-08-07T07:31:48.910Z,1.83
2022-08-07T07:34:22.298Z,1.40
2022-08-07T07:37:14.288Z,1.60
2022-08-07T07:39:54.905Z,1.52
2022-08-07T07:42:32.403Z,1.40
2022-08-07T07:45:02.042Z,1.50
2022-08-07T07:47:30.289Z,1.77
2022-08-07T07:50:32.445Z,1.23
2022-08-07T07:53:20.756Z,1.52
2022-08-07T07:56:01.979Z,1.60
2022-08-07T07:58:36.903Z,1.48
2022-08-07T08:02:01.929Z,1.38
2022-08-07T08:04:10.162Z,1.60
2022-08-07T08:06:40.713Z,1.35
2022-08-07T08:09:20.776Z,1.35
2022-08-07T08:12:01.750Z,1.45
2022-08-07T08:14:36.348Z,1.30
2022-08-07T08:17:56.708Z,1.30
2022-08-07T08:20:22.157Z,1.08
2022-08-07T08:23:03.251Z,1.02
2022-08-07T08:25:54.525Z,1.08
2022-08-07T08:28:38.332Z,1.27
2022-08-07T08:31:16.371Z,1.20
2022-08-07T08:33:55.467Z,1.05
2022-08-07T08:36:29.638Z,0.95
2022-08-07T08:39:00.059Z,0.90
2022-08-07T08:41:58.805Z,1.40
2022-08-07T08:44:44.917Z,0.90
2022-08-07T08:47:52.026Z,0.95
2022-08-07T08:50:35.296Z,0.82
2022-08-07T08:53:22.497Z,0.90
2022-08-07T08:56:04.336Z,0.73
2022-08-07T08:58:39.549Z,1.13
2022-08-07T09:01:29.813Z,0.70
2022-08-07T09:04:14.589Z,0.95
2022-08-07T09:06:50.084Z,0.90
2022-08-07T09:10:13.708Z,0.70
2022-08-07T09:12:53.485Z,0.60
2022-08-07T09:16:23.996Z,0.80
2022-08-07T09:18:35.000Z,0.80
2022-08-07T09:21:34.097Z,0.80
2022-08-07T09:24:32.440Z,0.82
2022-08-07T09:27:18.815Z,0.70
2022-08-07T09:30:06.562Z,0.70
2022-08-07T09:33:53.257Z,0.80
2022-08-07T09:36:18.744Z,0.65
2022-08-07T09:38:49.989Z,0.50
2022-08-07T09:41:58.962Z,0.70
2022-08-07T09:47:27.432Z,0.70
2022-08-07T09:48:01.674Z,0.70
2022-08-07T09:50:33.307Z,0.80
2022-08-07T09:53:02.075Z,0.65
2022-08-07T09:56:03.221Z,0.70
2022-08-07T09:58:43.471Z,0.77
2022-08-07T10:01:52.147Z,0.82
2022-08-07T10:05:01.344Z,0.90
2022-08-07T10:08:04.446Z,0.70
2022-08-07T10:14:01.771Z,0.90
2022-08-07T10:16:47.606Z,0.70
2022-08-07T10:20:08.239Z,0.70
2022-08-07T10:22:51.029Z,0.73
2022-08-07T10:25:45.126Z,0.70
2022-08-07T10:28:49.423Z,0.60
2022-08-07T10:31:52.117Z,0.60
2022-08-07T10:37:48.567Z,0.80
2022-08-07T10:40:30.541Z,0.70
2022-08-07T10:43:07.247Z,0.60
2022-08-07T10:45:44.551Z,0.70
2022-08-07T10:48:21.509Z,0.80
2022-08-07T10:51:16.784Z,0.55
2022-08-07T10:54:17.299Z,0.60
2022-08-07T10:57:08.596Z,0.77
2022-08-07T11:00:05.736Z,0.70
2022-08-07T11:02:53.335Z,0.70
2022-08-07T11:05:50.983Z,0.60
2022-08-07T11:08:45.771Z,0.70
2022-08-07T11:11:20.881Z,0.80
2022-08-07T11:14:43.607Z,0.65
2022-08-07T11:16:50.863Z,0.80
2022-08-07T11:19:27.458Z,0.60
2022-08-07T11:22:33.264Z,0.65
2022-08-07T11:25:28.511Z,0.85
2022-08-07T11:28:06.792Z,1.10
2022-08-07T11:30:58.200Z,0.90
2022-08-07T11:33:53.383Z,0.90
2022-08-07T11:36:56.464Z,0.70
2022-08-07T11:40:00.415Z,1.05
2022-08-07T11:42:50.516Z,0.77
2022-08-07T11:45:35.569Z,0.60
2022-08-07T11:48:53.843Z,0.60
2022-08-07T11:51:54.200Z,0.70
2022-08-07T11:54:53.084Z,0.60
2022-08-07T11:58:00.372Z,0.90
2022-08-07T12:01:20.257Z,0.90
2022-08-07T12:04:30.574Z,0.63
2022-08-07T12:07:09.028Z,0.65
2022-08-07T12:10:05.756Z,0.68
2022-08-07T12:12:38.851Z,0.68
2022-08-07T12:16:05.232Z,0.60
2022-08-07T12:18:15.995Z,0.85
2022-08-07T12:20:57.803Z,0.65
2022-08-07T12:24:07.574Z,0.60
2022-08-07T12:27:01.281Z,0.60
2022-08-07T12:29:46.691Z,0.65
2022-08-07T12:32:29.964Z,0.60
2022-08-07T12:34:58.072Z,0.68
2022-08-07T12:37:28.243Z,0.70
2022-08-07T12:40:47.107Z,0.50
2022-08-07T12:43:10.137Z,0.65
2022-08-07T12:46:16.009Z,0.70
2022-08-07T12:49:25.446Z,0.70
2022-08-07T12:52:14.443Z,0.70
2022-08-07T12:55:03.721Z,0.82
2022-08-07T12:57:38.811Z,0.60
2022-08-07T13:00:31.015Z,0.70
2022-08-07T13:06:26.885Z,0.60
2022-08-07T13:10:10.147Z,0.60
2022-08-07T13:12:10.299Z,0.50
2022-08-07T13:15:06.132Z,0.60
2022-08-07T13:17:42.714Z,0.65
2022-08-07T13:20:27.705Z,0.68
2022-08-07T13:24:00.887Z,0.73
2022-08-07T13:26:06.422Z,0.70
2022-08-07T13:28:47.240Z,0.55
2022-08-07T13:31:24.598Z,0.70
2022-08-07T13:34:30.491Z,0.60
2022-08-07T13:37:29.614Z,0.60
2022-08-07T13:40:35.301Z,0.85
2022-08-07T13:43:06.528Z,0.60
2022-08-07T13:46:21.529Z,0.50
2022-08-07T13:48:33.958Z,0.65
2022-08-07T13:51:02.692Z,0.60
2022-08-07T13:54:01.732Z,0.57
2022-08-07T13:56:40.773Z,0.73
2022-08-07T13:59:24.373Z,0.70
2022-08-07T14:02:03.473Z,0.60
2022-08-07T14:04:35.747Z,0.60
2022-08-07T14:07:09.482Z,0.63
2022-08-07T14:10:12.430Z,0.63
2022-08-07T14:12:41.539Z,0.63
2022-08-07T14:15:18.789Z,0.68
2022-08-07T14:18:23.895Z,0.77
2022-08-07T14:20:48.906Z,0.65
2022-08-07T14:23:58.991Z,0.80
2022-08-07T14:26:29.914Z,0.93
2022-08-07T14:29:04.410Z,0.57
2022-08-07T14:31:43.125Z,0.70
2022-08-07T14:37:16.850Z,0.57
2022-08-07T14:40:17.751Z,0.80
2022-08-07T14:45:25.606Z,0.80
2022-08-07T14:48:19.729Z,0.80
2022-08-07T14:54:08.849Z,0.63
2022-08-07T14:56:32.041Z,0.50
2022-08-07T14:59:13.654Z,0.60
2022-08-07T15:01:58.771Z,0.80
2022-08-07T15:04:26.151Z,0.80
2022-08-07T15:06:56.871Z,0.93
2022-08-07T15:09:59.609Z,0.70
2022-08-07T15:12:25.885Z,0.63
2022-08-07T15:18:02.530Z,0.60
2022-08-07T15:20:35.823Z,0.75
2022-08-07T15:25:12.791Z,0.80
2022-08-07T15:26:20.653Z,0.60
2022-08-07T15:30:08.585Z,0.80
2022-08-07T15:32:01.676Z,0.70
2022-08-07T15:34:55.497Z,0.68
2022-08-07T15:38:17.981Z,0.73
2022-08-07T15:40:34.681Z,0.75
2022-08-07T15:43:10.541Z,0.82
2022-08-07T15:46:04.525Z,0.80
2022-08-07T15:49:03.983Z,0.70
2022-08-07T15:54:34.693Z,0.70
2022-08-07T15:57:39.761Z,0.90
2022-08-07T16:00:04.100Z,0.70
2022-08-07T16:02:41.280Z,0.60
2022-08-07T16:05:15.952Z,0.70
2022-08-07T16:08:31.521Z,0.75
2022-08-07T16:10:36.679Z,0.70
2022-08-07T16:13:59.949Z,1.00
2022-08-07T16:16:48.704Z,0.70
2022-08-07T16:20:03.712Z,0.85
2022-08-07T16:22:54.344Z,0.80
2022-08-07T16:25:54.169Z,0.73
2022-08-07T16:30:05.889Z,0.70
2022-08-07T16:31:50.755Z,0.90
2022-08-07T16:34:24.030Z,0.70
2022-08-07T16:38:03.891Z,0.63
2022-08-07T16:40:23.371Z,0.98
2022-08-07T16:44:02.439Z,0.90
2022-08-07T16:47:04.659Z,1.10
2022-08-07T16:50:28.168Z,0.90
2022-08-07T16:52:51.153Z,1.00
2022-08-07T16:55:47.105Z,1.20
2022-08-07T16:59:11.190Z,1.30
2022-08-07T17:01:41.086Z,1.42
2022-08-07T17:04:57.807Z,1.30
2022-08-07T17:07:55.458Z,1.30
2022-08-07T17:10:39.653Z,1.20
2022-08-07T17:13:41.101Z,1.10
2022-08-07T17:16:22.089Z,1.30
2022-08-07T17:18:51.567Z,1.10
2022-08-07T17:21:50.628Z,1.17
2022-08-07T17:24:27.655Z,1.38
2022-08-07T17:27:19.933Z,1.40
2022-08-07T17:30:16.160Z,1.60
2022-08-07T17:34:08.496Z,1.92
2022-08-07T17:38:54.571Z,1.63
2022-08-07T17:42:03.097Z,1.67
2022-08-07T17:44:51.494Z,1.33
2022-08-07T17:47:55.358Z,1.60
2022-08-07T17:50:57.412Z,1.70
2022-08-07T17:54:01.667Z,1.67
2022-08-07T17:56:29.883Z,1.60
2022-08-07T17:58:56.940Z,1.58
2022-08-07T18:01:37.226Z,1.50
2022-08-07T18:04:24.714Z,1.40
2022-08-07T18:07:19.637Z,1.70
2022-08-07T18:10:06.824Z,1.55
2022-08-07T18:13:01.867Z,1.50
2022-08-07T18:15:35.931Z,1.77
2022-08-07T18:19:02.660Z,1.67
2022-08-07T18:21:42.166Z,1.45
2022-08-07T18:24:09.139Z,1.58
2022-08-07T18:27:06.818Z,1.40
2022-08-07T18:30:05.471Z,1.70
2022-08-07T18:35:21.875Z,1.30
2022-08-07T18:38:54.779Z,1.65
2022-08-07T18:41:44.885Z,1.60
2022-08-07T18:44:26.386Z,1.48
2022-08-07T18:47:22.672Z,1.70
2022-08-07T18:50:46.055Z,1.70
2022-08-07T18:53:44.058Z,1.58
2022-08-07T18:56:35.486Z,1.42
2022-08-07T18:59:47.981Z,1.80
2022-08-07T19:02:42.622Z,1.63
2022-08-07T19:05:22.746Z,1.70
2022-08-07T19:07:57.287Z,1.80
2022-08-07T19:10:51.420Z,1.50
2022-08-07T19:13:37.863Z,1.65
2022-08-07T19:17:00.355Z,1.83
2022-08-07T19:19:17.494Z,1.65
2022-08-07T19:22:04.072Z,1.70
2022-08-07T19:24:46.233Z,1.63
2022-08-07T19:28:58.881Z,1.75
2022-08-07T19:30:57.590Z,1.70
2022-08-07T19:33:02.804Z,1.90
2022-08-07T19:35:38.956Z,1.80
2022-08-07T19:38:16.786Z,1.60
2022-08-07T19:40:50.811Z,2.05
2022-08-07T19:43:45.151Z,1.70
2022-08-07T19:46:26.585Z,1.88
2022-08-07T19:49:07.294Z,1.80
2022-08-07T19:51:52.323Z,1.83
2022-08-07T19:54:33.180Z,2.03
2022-08-07T19:58:02.986Z,2.40
2022-08-07T20:00:02.132Z,2.42
2022-08-07T20:02:34.867Z,2.03
2022-08-07T20:05:09.774Z,1.90
2022-08-07T20:07:47.219Z,2.33
2022-08-07T20:10:35.472Z,1.90
2022-08-07T20:13:26.887Z,2.47
2022-08-07T20:15:58.197Z,2.30
2022-08-07T20:18:32.880Z,2.50
2022-08-07T20:21:14.350Z,2.90
2022-08-07T20:24:31.485Z,2.05
2022-08-07T20:27:09.175Z,2.08
2022-08-07T20:29:56.724Z,2.40
2022-08-07T20:32:27.672Z,2.08
2022-08-07T20:35:10.413Z,2.03
2022-08-07T20:37:59.041Z,2.10
2022-08-07T20:40:34.615Z,2.17
2022-08-07T20:43:14.416Z,2.08
2022-08-07T20:48:35.035Z,2.00
2022-08-07T20:51:09.532Z,1.98
2022-08-07T20:54:03.851Z,1.80
2022-08-07T20:56:29.082Z,2.08
2022-08-07T20:59:00.405Z,1.83
2022-08-07T21:04:23.451Z,2.08
2022-08-07T21:06:55.381Z,1.90
2022-08-07T21:09:30.831Z,2.00
2022-08-07T21:12:28.760Z,1.80
2022-08-07T21:14:58.503Z,2.10
2022-08-07T21:18:17.145Z,2.03
2022-08-07T21:20:26.913Z,2.13
2022-08-07T21:26:07.363Z,2.22
2022-08-07T21:28:51.019Z,1.90
2022-08-07T21:31:49.803Z,1.80
2022-08-07T21:34:18.994Z,1.92
2022-08-07T21:36:56.183Z,1.83
2022-08-07T21:39:51.552Z,2.25
2022-08-07T21:42:48.876Z,1.92
2022-08-07T21:46:09.455Z,1.77
2022-08-07T21:48:27.835Z,1.98
2022-08-07T21:51:20.017Z,2.08
2022-08-07T21:53:54.906Z,1.92
2022-08-07T21:56:36.208Z,1.80
2022-08-07T22:00:02.769Z,2.15
2022-08-07T22:02:27.807Z,2.03
2022-08-07T22:05:00.264Z,1.90
2022-08-07T22:07:42.734Z,1.80
2022-08-07T22:10:21.578Z,1.75
2022-08-07T22:12:55.419Z,1.90
2022-08-07T22:16:40.103Z,2.00
2022-08-07T22:18:23.734Z,1.83
2022-08-07T22:20:59.667Z,2.03
2022-08-07T22:23:46.447Z,2.10
2022-08-07T22:26:23.972Z,1.88
2022-08-07T22:29:16.720Z,2.05
2022-08-07T22:31:59.391Z,1.80
2022-08-07T22:34:54.386Z,1.95
2022-08-07T22:38:05.350Z,1.70
2022-08-07T22:40:32.067Z,1.85
2022-08-07T22:43:10.784Z,1.85
2022-08-07T22:47:02.328Z,2.00
2022-08-07T22:49:37.794Z,1.88
2022-08-07T22:52:37.702Z,1.98
2022-08-07T22:55:22.385Z,1.70
2022-08-07T22:58:10.381Z,1.92
2022-08-07T23:00:43.483Z,1.70
2022-08-07T23:03:14.903Z,1.90
2022-08-07T23:06:18.296Z,1.65
2022-08-07T23:10:06.250Z,1.70
2022-08-07T23:12:34.767Z,1.85
2022-08-07T23:16:04.665Z,1.90
2022-08-07T23:18:32.154Z,1.90
2022-08-07T23:21:16.302Z,1.80
2022-08-07T23:24:16.718Z,1.58
2022-08-07T23:27:01.527Z,1.90
2022-08-07T23:30:38.933Z,1.85
2022-08-07T23:34:19.954Z,1.60
2022-08-07T23:35:43.495Z,1.67
2022-08-07T23:38:19.107Z,2.13
2022-08-07T23:41:10.375Z,1.90
2022-08-07T23:43:58.832Z,1.90
2022-08-07T23:46:45.899Z,2.03
2022-08-07T23:49:50.660Z,1.80
2022-08-07T23:53:01.105Z,1.80
2022-08-07T23:55:53.388Z,1.75
2022-08-07T23:58:25.404Z,2.38
